sensor_id;sensor_type;location;lat;lon;timestamp;pressure;altitude;pressure_sealevel;temperature;humidity
11692;BME280;33659;42.672;23.354;2022-10-31T00:00:20;94844.00;;;16.23;49.12
11692;BME280;33659;42.672;23.354;2022-10-31T00:02:47;94837.81;;;16.16;49.43
11692;BME280;33659;42.672;23.354;2022-10-31T00:05:13;94839.38;;;16.17;49.38
11692;BME280;33659;42.672;23.354;2022-10-31T00:07:41;94830.97;;;16.11;49.52
11692;BME280;33659;42.672;23.354;2022-10-31T00:10:09;94832.25;;;15.98;50.25
11692;BME280;33659;42.672;23.354;2022-10-31T00:12:35;94837.81;;;15.93;50.46
11692;BME280;33659;42.672;23.354;2022-10-31T00:15:02;94825.31;;;15.90;50.53
11692;BME280;33659;42.672;23.354;2022-10-31T00:17:29;94818.53;;;15.89;50.64
11692;BME280;33659;42.672;23.354;2022-10-31T00:19:55;94832.13;;;15.91;50.59
11692;BME280;33659;42.672;23.354;2022-10-31T00:22:22;94834.13;;;15.97;50.41
11692;BME280;33659;42.672;23.354;2022-10-31T00:24:50;94828.50;;;15.99;50.40
11692;BME280;33659;42.672;23.354;2022-10-31T00:27:17;94828.50;;;15.99;50.53
11692;BME280;33659;42.672;23.354;2022-10-31T00:29:44;94833.22;;;15.90;50.93
11692;BME280;33659;42.672;23.354;2022-10-31T00:32:10;94842.25;;;15.89;51.13
11692;BME280;33659;42.672;23.354;2022-10-31T00:34:37;94819.88;;;15.79;51.30
11692;BME280;33659;42.672;23.354;2022-10-31T00:37:03;94827.50;;;15.84;50.96
11692;BME280;33659;42.672;23.354;2022-10-31T00:39:30;94831.66;;;15.85;50.96
11692;BME280;33659;42.672;23.354;2022-10-31T00:41:58;94833.03;;;15.79;51.38
11692;BME280;33659;42.672;23.354;2022-10-31T00:44:25;94823.69;;;15.82;51.47
11692;BME280;33659;42.672;23.354;2022-10-31T00:46:51;94827.81;;;15.83;51.44
11692;BME280;33659;42.672;23.354;2022-10-31T00:49:18;94828.94;;;15.82;51.48
11692;BME280;33659;42.672;23.354;2022-10-31T00:51:45;94824.38;;;15.79;51.45
11692;BME280;33659;42.672;23.354;2022-10-31T00:54:11;94832.28;;;15.79;51.39
11692;BME280;33659;42.672;23.354;2022-10-31T00:56:38;94821.44;;;15.84;51.35
11692;BME280;33659;42.672;23.354;2022-10-31T00:59:06;94827.56;;;15.88;51.15
11692;BME280;33659;42.672;23.354;2022-10-31T01:01:33;94828.38;;;15.92;51.02
11692;BME280;33659;42.672;23.354;2022-10-31T01:03:59;94822.75;;;15.93;51.31
11692;BME280;33659;42.672;23.354;2022-10-31T01:06:26;94830.31;;;15.95;51.27
11692;BME280;33659;42.672;23.354;2022-10-31T01:08:53;94831.91;;;16.00;51.42
11692;BME280;33659;42.672;23.354;2022-10-31T01:11:22;94826.69;;;16.03;51.22
11692;BME280;33659;42.672;23.354;2022-10-31T01:13:50;94832.78;;;16.07;51.30
11692;BME280;33659;42.672;23.354;2022-10-31T01:16:20;94831.25;;;16.06;51.18
11692;BME280;33659;42.672;23.354;2022-10-31T01:18:47;94834.31;;;16.08;51.16
11692;BME280;33659;42.672;23.354;2022-10-31T01:21:16;94833.19;;;16.09;51.14
11692;BME280;33659;42.672;23.354;2022-10-31T01:23:43;94833.81;;;16.03;51.28
11692;BME280;33659;42.672;23.354;2022-10-31T01:26:11;94838.63;;;15.97;51.45
11692;BME280;33659;42.672;23.354;2022-10-31T01:28:44;94846.19;;;15.98;51.51
11692;BME280;33659;42.672;23.354;2022-10-31T01:31:11;94845.94;;;16.07;51.26
11692;BME280;33659;42.672;23.354;2022-10-31T01:33:39;94841.56;;;16.15;50.94
11692;BME280;33659;42.672;23.354;2022-10-31T01:36:18;94845.44;;;16.21;51.14
11692;BME280;33659;42.672;23.354;2022-10-31T01:38:45;94849.25;;;16.23;51.28
11692;BME280;33659;42.672;23.354;2022-10-31T01:41:13;94855.69;;;16.26;51.13
11692;BME280;33659;42.672;23.354;2022-10-31T01:43:45;94843.84;;;16.16;51.24
11692;BME280;33659;42.672;23.354;2022-10-31T01:46:13;94851.41;;;16.18;50.95
11692;BME280;33659;42.672;23.354;2022-10-31T01:48:43;94849.81;;;16.13;51.32
11692;BME280;33659;42.672;23.354;2022-10-31T01:51:12;94853.50;;;16.09;51.29
11692;BME280;33659;42.672;23.354;2022-10-31T01:53:42;94855.38;;;16.08;51.42
11692;BME280;33659;42.672;23.354;2022-10-31T01:56:10;94860.25;;;16.06;51.42
11692;BME280;33659;42.672;23.354;2022-10-31T01:58:37;94848.81;;;15.98;51.49
11692;BME280;33659;42.672;23.354;2022-10-31T02:01:04;94841.97;;;15.94;51.84
11692;BME280;33659;42.672;23.354;2022-10-31T02:03:31;94843.75;;;15.90;51.87
11692;BME280;33659;42.672;23.354;2022-10-31T02:05:59;94840.38;;;15.89;52.05
11692;BME280;33659;42.672;23.354;2022-10-31T02:08:28;94843.06;;;15.93;52.30
11692;BME280;33659;42.672;23.354;2022-10-31T02:10:56;94843.13;;;15.96;52.15
11692;BME280;33659;42.672;23.354;2022-10-31T02:13:24;94836.41;;;15.99;51.81
11692;BME280;33659;42.672;23.354;2022-10-31T02:15:52;94842.78;;;15.98;51.91
11692;BME280;33659;42.672;23.354;2022-10-31T02:18:20;94848.75;;;15.95;51.90
11692;BME280;33659;42.672;23.354;2022-10-31T02:20:54;94842.38;;;15.96;51.91
11692;BME280;33659;42.672;23.354;2022-10-31T02:24:05;94846.09;;;15.95;52.12
11692;BME280;33659;42.672;23.354;2022-10-31T02:26:52;94856.66;;;15.95;52.06
11692;BME280;33659;42.672;23.354;2022-10-31T02:32:22;94861.44;;;15.89;52.14
11692;BME280;33659;42.672;23.354;2022-10-31T02:34:56;94870.53;;;15.92;52.13
11692;BME280;33659;42.672;23.354;2022-10-31T02:37:29;94862.19;;;15.90;52.29
11692;BME280;33659;42.672;23.354;2022-10-31T02:40:04;94865.53;;;15.87;52.00
11692;BME280;33659;42.672;23.354;2022-10-31T02:42:33;94865.81;;;15.82;52.54
11692;BME280;33659;42.672;23.354;2022-10-31T02:45:08;94869.56;;;15.81;52.43
11692;BME280;33659;42.672;23.354;2022-10-31T02:47:40;94866.91;;;15.81;52.39
11692;BME280;33659;42.672;23.354;2022-10-31T02:50:13;94878.44;;;15.73;52.62
11692;BME280;33659;42.672;23.354;2022-10-31T02:52:41;94872.81;;;15.74;52.74
11692;BME280;33659;42.672;23.354;2022-10-31T02:55:39;94869.28;;;15.66;52.91
11692;BME280;33659;42.672;23.354;2022-10-31T02:58:00;94872.72;;;15.70;52.86
11692;BME280;33659;42.672;23.354;2022-10-31T03:00:30;94872.28;;;15.65;53.00
11692;BME280;33659;42.672;23.354;2022-10-31T03:03:06;94881.34;;;15.67;52.88
11692;BME280;33659;42.672;23.354;2022-10-31T03:05:41;94881.41;;;15.71;52.86
11692;BME280;33659;42.672;23.354;2022-10-31T03:08:20;94879.13;;;15.69;53.00
11692;BME280;33659;42.672;23.354;2022-10-31T03:10:53;94877.19;;;15.66;52.91
11692;BME280;33659;42.672;23.354;2022-10-31T03:13:25;94875.38;;;15.70;53.00
11692;BME280;33659;42.672;23.354;2022-10-31T03:16:03;94880.84;;;15.81;52.86
11692;BME280;33659;42.672;23.354;2022-10-31T03:18:36;94880.22;;;15.88;52.76
11692;BME280;33659;42.672;23.354;2022-10-31T03:21:07;94875.78;;;15.92;52.63
11692;BME280;33659;42.672;23.354;2022-10-31T03:23:36;94872.03;;;15.93;52.60
11692;BME280;33659;42.672;23.354;2022-10-31T03:26:06;94875.09;;;15.95;52.88
11692;BME280;33659;42.672;23.354;2022-10-31T03:28:37;94871.28;;;15.92;53.06
11692;BME280;33659;42.672;23.354;2022-10-31T03:31:06;94878.47;;;15.95;53.18
11692;BME280;33659;42.672;23.354;2022-10-31T03:33:38;94886.03;;;15.97;53.05
11692;BME280;33659;42.672;23.354;2022-10-31T03:36:08;94884.19;;;15.97;53.18
11692;BME280;33659;42.672;23.354;2022-10-31T03:38:37;94892.84;;;15.98;52.97
11692;BME280;33659;42.672;23.354;2022-10-31T03:41:07;94883.00;;;15.95;52.96
11692;BME280;33659;42.672;23.354;2022-10-31T03:43:42;94891.66;;;15.95;53.10
11692;BME280;33659;42.672;23.354;2022-10-31T03:46:09;94896.88;;;15.92;53.03
11692;BME280;33659;42.672;23.354;2022-10-31T03:48:38;94897.28;;;15.94;53.38
11692;BME280;33659;42.672;23.354;2022-10-31T03:51:08;94899.50;;;15.92;53.09
11692;BME280;33659;42.672;23.354;2022-10-31T03:53:40;94902.53;;;15.94;53.15
11692;BME280;33659;42.672;23.354;2022-10-31T03:56:15;94897.63;;;15.92;53.25
11692;BME280;33659;42.672;23.354;2022-10-31T03:58:50;94900.13;;;15.85;53.45
11692;BME280;33659;42.672;23.354;2022-10-31T04:01:20;94905.19;;;15.75;53.52
11692;BME280;33659;42.672;23.354;2022-10-31T04:03:49;94907.59;;;15.64;53.99
11692;BME280;33659;42.672;23.354;2022-10-31T04:06:18;94906.59;;;15.53;54.58
11692;BME280;33659;42.672;23.354;2022-10-31T04:08:48;94904.00;;;15.37;55.43
11692;BME280;33659;42.672;23.354;2022-10-31T04:11:18;94908.44;;;15.33;55.38
11692;BME280;33659;42.672;23.354;2022-10-31T04:13:48;94908.44;;;15.33;55.59
11692;BME280;33659;42.672;23.354;2022-10-31T04:16:16;94915.47;;;15.29;55.55
11692;BME280;33659;42.672;23.354;2022-10-31T04:18:43;94921.34;;;15.22;55.92
11692;BME280;33659;42.672;23.354;2022-10-31T04:21:11;94920.66;;;15.25;56.25
11692;BME280;33659;42.672;23.354;2022-10-31T04:23:38;94910.22;;;15.29;55.86
11692;BME280;33659;42.672;23.354;2022-10-31T04:26:04;94922.69;;;15.32;56.01
11692;BME280;33659;42.672;23.354;2022-10-31T04:28:31;94923.53;;;15.36;55.95
11692;BME280;33659;42.672;23.354;2022-10-31T04:30:59;94922.78;;;15.35;56.03
11692;BME280;33659;42.672;23.354;2022-10-31T04:33:26;94923.88;;;15.34;55.91
11692;BME280;33659;42.672;23.354;2022-10-31T04:35:52;94914.38;;;15.30;56.12
11692;BME280;33659;42.672;23.354;2022-10-31T04:38:21;94917.69;;;15.27;56.29
11692;BME280;33659;42.672;23.354;2022-10-31T04:40:47;94919.63;;;15.30;56.27
11692;BME280;33659;42.672;23.354;2022-10-31T04:43:14;94925.75;;;15.34;56.15
11692;BME280;33659;42.672;23.354;2022-10-31T04:45:41;94930.72;;;15.39;56.07
11692;BME280;33659;42.672;23.354;2022-10-31T04:48:07;94932.94;;;15.37;55.90
11692;BME280;33659;42.672;23.354;2022-10-31T04:50:34;94927.28;;;15.35;56.26
11692;BME280;33659;42.672;23.354;2022-10-31T04:53:01;94935.56;;;15.37;56.08
11692;BME280;33659;42.672;23.354;2022-10-31T04:55:29;94934.47;;;15.38;55.88
11692;BME280;33659;42.672;23.354;2022-10-31T04:57:56;94937.44;;;15.36;56.13
11692;BME280;33659;42.672;23.354;2022-10-31T05:00:23;94934.91;;;15.40;56.00
11692;BME280;33659;42.672;23.354;2022-10-31T05:02:52;94938.34;;;15.44;55.91
11692;BME280;33659;42.672;23.354;2022-10-31T05:05:20;94942.50;;;15.45;55.67
11692;BME280;33659;42.672;23.354;2022-10-31T05:07:48;94941.84;;;15.48;55.91
11692;BME280;33659;42.672;23.354;2022-10-31T05:10:17;94941.50;;;15.50;55.88
11692;BME280;33659;42.672;23.354;2022-10-31T05:12:50;94945.66;;;15.51;55.81
11692;BME280;33659;42.672;23.354;2022-10-31T05:15:18;94951.97;;;15.46;55.90
11692;BME280;33659;42.672;23.354;2022-10-31T05:17:45;94947.00;;;15.44;56.01
11692;BME280;33659;42.672;23.354;2022-10-31T05:20:13;94953.03;;;15.45;56.22
11692;BME280;33659;42.672;23.354;2022-10-31T05:22:42;94960.94;;;15.45;56.05
11692;BME280;33659;42.672;23.354;2022-10-31T05:25:09;94962.91;;;15.48;56.13
11692;BME280;33659;42.672;23.354;2022-10-31T05:27:38;94968.84;;;15.45;56.19
11692;BME280;33659;42.672;23.354;2022-10-31T05:30:07;94961.69;;;15.45;56.25
11692;BME280;33659;42.672;23.354;2022-10-31T05:32:37;94964.41;;;15.49;56.20
11692;BME280;33659;42.672;23.354;2022-10-31T05:35:05;94966.69;;;15.51;56.33
11692;BME280;33659;42.672;23.354;2022-10-31T05:37:33;94975.09;;;15.56;55.99
11692;BME280;33659;42.672;23.354;2022-10-31T05:40:00;94969.16;;;15.59;55.91
11692;BME280;33659;42.672;23.354;2022-10-31T05:42:26;94967.63;;;15.58;56.06
11692;BME280;33659;42.672;23.354;2022-10-31T05:44:53;94969.56;;;15.61;56.05
11692;BME280;33659;42.672;23.354;2022-10-31T05:47:21;94968.50;;;15.62;55.99
11692;BME280;33659;42.672;23.354;2022-10-31T05:49:48;94977.16;;;15.63;55.98
11692;BME280;33659;42.672;23.354;2022-10-31T05:52:14;94980.97;;;15.65;55.99
11692;BME280;33659;42.672;23.354;2022-10-31T05:54:41;94980.69;;;15.70;55.89
11692;BME280;33659;42.672;23.354;2022-10-31T05:57:08;94981.31;;;15.64;55.79
11692;BME280;33659;42.672;23.354;2022-10-31T05:59:34;94979.13;;;15.66;55.86
11692;BME280;33659;42.672;23.354;2022-10-31T06:02:01;94987.84;;;15.70;55.67
11692;BME280;33659;42.672;23.354;2022-10-31T06:04:29;94989.28;;;15.67;56.05
11692;BME280;33659;42.672;23.354;2022-10-31T06:06:56;94989.44;;;15.75;55.65
11692;BME280;33659;42.672;23.354;2022-10-31T06:09:23;95000.13;;;15.82;55.65
11692;BME280;33659;42.672;23.354;2022-10-31T06:11:49;94998.34;;;15.86;55.47
11692;BME280;33659;42.672;23.354;2022-10-31T06:14:16;94999.16;;;15.90;55.45
11692;BME280;33659;42.672;23.354;2022-10-31T06:16:43;94996.97;;;15.92;55.43
11692;BME280;33659;42.672;23.354;2022-10-31T06:19:09;95006.03;;;15.94;55.41
11692;BME280;33659;42.672;23.354;2022-10-31T06:21:37;95006.19;;;16.02;55.33
11692;BME280;33659;42.672;23.354;2022-10-31T06:24:04;95008.47;;;16.03;55.12
11692;BME280;33659;42.672;23.354;2022-10-31T06:26:31;95014.22;;;16.09;54.98
11692;BME280;33659;42.672;23.354;2022-10-31T06:28:58;95021.09;;;16.13;55.07
11692;BME280;33659;42.672;23.354;2022-10-31T06:31:24;95019.72;;;16.19;54.98
11692;BME280;33659;42.672;23.354;2022-10-31T06:33:51;95022.75;;;16.21;54.99
11692;BME280;33659;42.672;23.354;2022-10-31T06:36:18;95018.75;;;16.28;54.96
11692;BME280;33659;42.672;23.354;2022-10-31T06:38:46;95031.25;;;16.31;54.96
11692;BME280;33659;42.672;23.354;2022-10-31T06:41:12;95030.13;;;16.32;55.14
11692;BME280;33659;42.672;23.354;2022-10-31T06:43:39;95030.25;;;16.39;55.12
11692;BME280;33659;42.672;23.354;2022-10-31T06:46:06;95028.88;;;16.45;54.46
11692;BME280;33659;42.672;23.354;2022-10-31T06:48:32;95031.22;;;16.50;54.35
11692;BME280;33659;42.672;23.354;2022-10-31T06:51:00;95025.25;;;16.53;54.12
11692;BME280;33659;42.672;23.354;2022-10-31T06:53:27;95029.09;;;16.56;54.13
11692;BME280;33659;42.672;23.354;2022-10-31T06:55:56;95030.66;;;16.60;54.26
11692;BME280;33659;42.672;23.354;2022-10-31T06:58:23;95031.09;;;16.62;54.32
11692;BME280;33659;42.672;23.354;2022-10-31T07:00:50;95034.41;;;16.59;54.30
11692;BME280;33659;42.672;23.354;2022-10-31T07:03:17;95033.66;;;16.59;54.40
11692;BME280;33659;42.672;23.354;2022-10-31T07:05:45;95032.03;;;16.54;54.63
11692;BME280;33659;42.672;23.354;2022-10-31T07:08:13;95033.66;;;16.59;54.66
11692;BME280;33659;42.672;23.354;2022-10-31T07:10:41;95043.31;;;16.70;54.39
11692;BME280;33659;42.672;23.354;2022-10-31T07:13:11;95034.00;;;16.76;54.34
11692;BME280;33659;42.672;23.354;2022-10-31T07:15:39;95023.59;;;16.84;54.16
11692;BME280;33659;42.672;23.354;2022-10-31T07:18:08;95024.41;;;16.88;53.87
11692;BME280;33659;42.672;23.354;2022-10-31T07:20:35;95029.81;;;16.95;53.81
11692;BME280;33659;42.672;23.354;2022-10-31T07:23:02;95022.31;;;16.97;53.80
11692;BME280;33659;42.672;23.354;2022-10-31T07:25:29;95009.50;;;16.99;54.02
11692;BME280;33659;42.672;23.354;2022-10-31T07:27:56;95009.69;;;17.10;53.81
11692;BME280;33659;42.672;23.354;2022-10-31T07:30:24;95013.38;;;17.05;55.69
11692;BME280;33659;42.672;23.354;2022-10-31T07:32:50;95009.75;;;17.13;55.40
11692;BME280;33659;42.672;23.354;2022-10-31T07:35:19;95013.59;;;17.19;54.55
11692;BME280;33659;42.672;23.354;2022-10-31T07:37:46;95013.75;;;17.26;54.15
11692;BME280;33659;42.672;23.354;2022-10-31T07:40:13;95015.16;;;17.20;54.36
11692;BME280;33659;42.672;23.354;2022-10-31T07:42:41;95010.97;;;17.19;54.44
11692;BME280;33659;42.672;23.354;2022-10-31T07:45:11;95016.13;;;17.12;54.30
11692;BME280;33659;42.672;23.354;2022-10-31T07:47:40;95016.38;;;17.03;54.56
11692;BME280;33659;42.672;23.354;2022-10-31T07:50:07;95003.75;;;16.93;54.71
11692;BME280;33659;42.672;23.354;2022-10-31T07:52:34;95016.31;;;17.00;54.69
11692;BME280;33659;42.672;23.354;2022-10-31T07:55:01;95017.97;;;17.08;54.45
11692;BME280;33659;42.672;23.354;2022-10-31T07:57:29;95017.38;;;17.18;54.42
11692;BME280;33659;42.672;23.354;2022-10-31T07:59:55;95017.19;;;17.30;54.12
11692;BME280;33659;42.672;23.354;2022-10-31T08:02:22;95024.53;;;17.41;53.75
11692;BME280;33659;42.672;23.354;2022-10-31T08:04:50;95012.53;;;17.47;53.80
11692;BME280;33659;42.672;23.354;2022-10-31T08:07:17;95004.31;;;17.52;53.37
11692;BME280;33659;42.672;23.354;2022-10-31T08:09:44;95028.03;;;17.71;53.24
11692;BME280;33659;42.672;23.354;2022-10-31T08:12:10;95021.28;;;17.77;52.60
11692;BME280;33659;42.672;23.354;2022-10-31T08:14:37;95020.28;;;17.85;52.55
11692;BME280;33659;42.672;23.354;2022-10-31T08:17:04;95015.66;;;17.79;52.67
11692;BME280;33659;42.672;23.354;2022-10-31T08:19:30;95019.88;;;17.83;52.57
11692;BME280;33659;42.672;23.354;2022-10-31T08:21:58;95020.03;;;17.94;52.33
11692;BME280;33659;42.672;23.354;2022-10-31T08:24:25;95023.19;;;18.07;52.03
11692;BME280;33659;42.672;23.354;2022-10-31T08:26:52;95021.41;;;18.14;51.99
11692;BME280;33659;42.672;23.354;2022-10-31T08:29:19;95023.38;;;18.21;51.61
11692;BME280;33659;42.672;23.354;2022-10-31T08:31:45;95025.69;;;18.23;51.82
11692;BME280;33659;42.672;23.354;2022-10-31T08:34:12;95015.94;;;18.30;51.49
11692;BME280;33659;42.672;23.354;2022-10-31T08:36:39;95009.25;;;18.40;51.36
11692;BME280;33659;42.672;23.354;2022-10-31T08:39:07;95011.19;;;18.43;51.48
11692;BME280;33659;42.672;23.354;2022-10-31T08:41:33;95012.03;;;18.54;51.25
11692;BME280;33659;42.672;23.354;2022-10-31T08:44:00;95006.94;;;18.69;50.61
11692;BME280;33659;42.672;23.354;2022-10-31T08:46:27;95007.09;;;18.83;50.35
11692;BME280;33659;42.672;23.354;2022-10-31T08:48:54;95009.41;;;18.91;50.12
11692;BME280;33659;42.672;23.354;2022-10-31T08:51:20;95009.91;;;19.01;50.04
11692;BME280;33659;42.672;23.354;2022-10-31T08:53:47;95005.75;;;19.03;49.90
11692;BME280;33659;42.672;23.354;2022-10-31T08:56:15;95011.97;;;19.21;49.59
11692;BME280;33659;42.672;23.354;2022-10-31T08:58:41;95009.47;;;19.43;49.12
11692;BME280;33659;42.672;23.354;2022-10-31T09:01:08;95006.59;;;19.62;48.52
11692;BME280;33659;42.672;23.354;2022-10-31T09:03:35;95003.66;;;19.71;48.34
11692;BME280;33659;42.672;23.354;2022-10-31T09:06:03;95007.88;;;19.86;48.18
11692;BME280;33659;42.672;23.354;2022-10-31T09:08:34;95005.34;;;20.04;47.79
11692;BME280;33659;42.672;23.354;2022-10-31T09:11:01;95001.56;;;20.05;47.19
11692;BME280;33659;42.672;23.354;2022-10-31T09:13:29;95003.03;;;19.99;47.38
11692;BME280;33659;42.672;23.354;2022-10-31T09:15:57;94997.78;;;20.10;48.92
11692;BME280;33659;42.672;23.354;2022-10-31T09:18:24;95007.38;;;20.36;47.32
11692;BME280;33659;42.672;23.354;2022-10-31T09:20:53;94999.09;;;20.51;47.10
11692;BME280;33659;42.672;23.354;2022-10-31T09:23:21;94998.78;;;20.78;46.20
11692;BME280;33659;42.672;23.354;2022-10-31T09:25:49;95001.09;;;21.04;45.69
11692;BME280;33659;42.672;23.354;2022-10-31T09:28:18;94994.66;;;21.16;45.53
11692;BME280;33659;42.672;23.354;2022-10-31T09:30:48;94993.16;;;21.36;45.70
11692;BME280;33659;42.672;23.354;2022-10-31T09:33:17;94998.44;;;21.44;44.84
11692;BME280;33659;42.672;23.354;2022-10-31T09:35:44;95003.03;;;21.47;44.90
11692;BME280;33659;42.672;23.354;2022-10-31T09:38:13;95004.50;;;21.69;44.39
11692;BME280;33659;42.672;23.354;2022-10-31T09:40:42;94998.78;;;21.92;43.98
11692;BME280;33659;42.672;23.354;2022-10-31T09:43:15;95000.66;;;22.09;43.65
11692;BME280;33659;42.672;23.354;2022-10-31T09:45:55;94997.19;;;22.20;43.25
11692;BME280;33659;42.672;23.354;2022-10-31T09:48:35;94988.78;;;22.35;43.55
11692;BME280;33659;42.672;23.354;2022-10-31T09:51:06;94996.28;;;22.51;43.09
11692;BME280;33659;42.672;23.354;2022-10-31T09:53:38;94996.66;;;22.57;41.96
11692;BME280;33659;42.672;23.354;2022-10-31T09:56:08;94992.00;;;22.71;41.76
11692;BME280;33659;42.672;23.354;2022-10-31T09:58:42;94988.59;;;22.67;41.97
11692;BME280;33659;42.672;23.354;2022-10-31T10:01:19;94980.88;;;22.84;41.24
11692;BME280;33659;42.672;23.354;2022-10-31T10:03:51;94986.53;;;23.00;41.08
11692;BME280;33659;42.672;23.354;2022-10-31T10:06:22;94971.94;;;23.15;41.01
11692;BME280;33659;42.672;23.354;2022-10-31T10:08:50;94974.41;;;23.37;40.45
11692;BME280;33659;42.672;23.354;2022-10-31T10:11:30;94962.91;;;23.47;41.17
11692;BME280;33659;42.672;23.354;2022-10-31T10:14:08;94957.72;;;23.74;40.25
11692;BME280;33659;42.672;23.354;2022-10-31T10:16:51;94957.84;;;23.97;39.99
11692;BME280;33659;42.672;23.354;2022-10-31T10:19:40;94956.28;;;24.00;39.17
11692;BME280;33659;42.672;23.354;2022-10-31T10:22:14;94955.44;;;24.07;38.34
11692;BME280;33659;42.672;23.354;2022-10-31T10:24:58;94960.22;;;24.22;37.99
11692;BME280;33659;42.672;23.354;2022-10-31T10:27:40;94952.75;;;24.41;38.01
11692;BME280;33659;42.672;23.354;2022-10-31T10:30:13;94938.19;;;24.49;38.02
11692;BME280;33659;42.672;23.354;2022-10-31T10:32:46;94929.44;;;24.72;37.46
11692;BME280;33659;42.672;23.354;2022-10-31T10:35:20;94943.59;;;24.96;37.75
11692;BME280;33659;42.672;23.354;2022-10-31T10:37:50;94937.41;;;24.99;36.54
11692;BME280;33659;42.672;23.354;2022-10-31T10:40:21;94933.72;;;24.93;37.55
11692;BME280;33659;42.672;23.354;2022-10-31T10:42:55;94929.03;;;25.00;36.18
11692;BME280;33659;42.672;23.354;2022-10-31T10:45:40;94936.50;;;25.13;36.77
11692;BME280;33659;42.672;23.354;2022-10-31T10:48:33;94921.22;;;25.13;37.09
11692;BME280;33659;42.672;23.354;2022-10-31T10:51:05;94926.06;;;25.42;39.17
11692;BME280;33659;42.672;23.354;2022-10-31T10:53:41;94922.19;;;25.66;36.26
11692;BME280;33659;42.672;23.354;2022-10-31T10:56:34;94920.72;;;25.85;37.89
11692;BME280;33659;42.672;23.354;2022-10-31T10:59:04;94930.25;;;26.06;38.09
11692;BME280;33659;42.672;23.354;2022-10-31T11:01:31;94923.34;;;26.25;38.53
11692;BME280;33659;42.672;23.354;2022-10-31T11:04:01;94924.69;;;26.16;35.84
11692;BME280;33659;42.672;23.354;2022-10-31T11:06:29;94921.38;;;26.29;36.55
11692;BME280;33659;42.672;23.354;2022-10-31T11:08:56;94923.00;;;26.42;36.18
11692;BME280;33659;42.672;23.354;2022-10-31T11:11:25;94921.63;;;26.54;34.15
11692;BME280;33659;42.672;23.354;2022-10-31T11:13:59;94917.00;;;26.55;33.92
11692;BME280;33659;42.672;23.354;2022-10-31T11:16:32;94904.53;;;26.48;33.72
11692;BME280;33659;42.672;23.354;2022-10-31T11:19:13;94906.88;;;26.62;33.94
11692;BME280;33659;42.672;23.354;2022-10-31T11:21:43;94906.72;;;26.69;34.98
11692;BME280;33659;42.672;23.354;2022-10-31T11:24:15;94907.97;;;26.49;34.41
11692;BME280;33659;42.672;23.354;2022-10-31T11:26:44;94905.13;;;26.56;35.05
11692;BME280;33659;42.672;23.354;2022-10-31T11:29:14;94904.78;;;26.70;33.97
11692;BME280;33659;42.672;23.354;2022-10-31T11:31:43;94894.91;;;26.67;33.22
11692;BME280;33659;42.672;23.354;2022-10-31T11:34:26;94881.44;;;26.70;35.70
11692;BME280;33659;42.672;23.354;2022-10-31T11:36:58;94891.88;;;26.97;33.43
11692;BME280;33659;42.672;23.354;2022-10-31T11:39:26;94888.38;;;27.00;33.17
11692;BME280;33659;42.672;23.354;2022-10-31T11:41:54;94879.84;;;26.89;33.26
11692;BME280;33659;42.672;23.354;2022-10-31T11:44:22;94876.91;;;27.00;33.70
11692;BME280;33659;42.672;23.354;2022-10-31T11:46:51;94883.34;;;27.03;35.32
11692;BME280;33659;42.672;23.354;2022-10-31T11:49:29;94876.13;;;27.16;35.39
11692;BME280;33659;42.672;23.354;2022-10-31T11:51:58;94869.16;;;27.35;34.07
11692;BME280;33659;42.672;23.354;2022-10-31T11:54:28;94868.69;;;27.52;32.92
11692;BME280;33659;42.672;23.354;2022-10-31T11:56:56;94865.97;;;27.69;32.75
11692;BME280;33659;42.672;23.354;2022-10-31T11:59:26;94858.28;;;27.84;32.71
11692;BME280;33659;42.672;23.354;2022-10-31T12:01:54;94872.44;;;27.84;32.77
11692;BME280;33659;42.672;23.354;2022-10-31T12:04:32;94866.13;;;27.62;32.21
11692;BME280;33659;42.672;23.354;2022-10-31T12:07:01;94864.53;;;27.35;32.07
11692;BME280;33659;42.672;23.354;2022-10-31T12:09:29;94857.72;;;27.18;32.71
11692;BME280;33659;42.672;23.354;2022-10-31T12:12:06;94860.59;;;27.69;31.55
11692;BME280;33659;42.672;23.354;2022-10-31T12:14:44;94857.88;;;28.11;32.69
11692;BME280;33659;42.672;23.354;2022-10-31T12:17:16;94859.41;;;28.50;30.90
11692;BME280;33659;42.672;23.354;2022-10-31T12:19:56;94857.53;;;28.98;30.17
11692;BME280;33659;42.672;23.354;2022-10-31T12:22:40;94868.69;;;29.56;30.79
11692;BME280;33659;42.672;23.354;2022-10-31T12:25:21;94855.38;;;29.84;29.63
11692;BME280;33659;42.672;23.354;2022-10-31T12:28:00;94860.13;;;30.33;29.00
11692;BME280;33659;42.672;23.354;2022-10-31T12:30:37;94850.59;;;30.41;28.41
11692;BME280;33659;42.672;23.354;2022-10-31T12:33:32;94855.28;;;30.59;27.04
11692;BME280;33659;42.672;23.354;2022-10-31T12:36:14;94852.13;;;31.28;27.83
11692;BME280;33659;42.672;23.354;2022-10-31T12:39:03;94852.44;;;31.58;26.27
11692;BME280;33659;42.672;23.354;2022-10-31T12:41:45;94839.53;;;32.22;26.07
11692;BME280;33659;42.672;23.354;2022-10-31T12:44:25;94853.63;;;32.36;25.10
11692;BME280;33659;42.672;23.354;2022-10-31T12:47:07;94852.09;;;33.01;24.88
11692;BME280;33659;42.672;23.354;2022-10-31T12:49:44;94853.91;;;33.42;25.24
11692;BME280;33659;42.672;23.354;2022-10-31T12:52:27;94847.44;;;33.93;24.08
11692;BME280;33659;42.672;23.354;2022-10-31T12:55:08;94851.13;;;34.40;23.00
11692;BME280;33659;42.672;23.354;2022-10-31T12:57:40;94844.72;;;34.58;22.56
11692;BME280;33659;42.672;23.354;2022-10-31T13:00:12;94854.34;;;35.15;23.36
11692;BME280;33659;42.672;23.354;2022-10-31T13:02:45;94851.22;;;35.63;22.87
11692;BME280;33659;42.672;23.354;2022-10-31T13:05:19;94849.66;;;36.08;21.79
11692;BME280;33659;42.672;23.354;2022-10-31T13:07:54;94853.63;;;36.44;22.56